Time,TemperatureF,DewpointF,PressureIn,WindDirection,WindDirectionDegrees,WindSpeedMPH,WindSpeedGustMPH,Humidity,HourlyPrecipIn,Conditions,Clouds,dailyrainin,SolarRadiationWatts/m^2,SoftwareType,DateUTC
2013-09-09 00:01:00,86.0,65.0,-100.00,SW,222,6.0,10.0,49,0.00,,,0.01,0.000000,,2013-09-09 07:01:00,
2013-09-09 00:11:00,86.0,65.0,-100.00,SW,222,6.0,10.0,49,0.00,,,0.01,0.000000,,2013-09-09 07:11:00,
2013-09-09 00:21:00,86.0,65.0,-100.00,SW,222,6.0,10.0,49,0.00,,,0.01,0.000000,,2013-09-09 07:21:00,
2013-09-09 00:52:00,85.0,60.0,-100.00,SSW,203,0.0,7.0,43,0.00,,,0.01,0.000000,,2013-09-09 07:52:00,
2013-09-09 01:02:00,85.0,60.0,-100.00,SSW,203,0.0,7.0,43,0.00,,,0.01,0.000000,,2013-09-09 08:02:00,
2013-09-09 01:11:00,85.0,60.0,-100.00,SSW,203,0.0,7.0,43,0.00,,,0.01,0.000000,,2013-09-09 08:11:00,
2013-09-09 01:21:00,85.0,60.0,-100.00,SSW,203,0.0,7.0,43,0.00,,,0.01,0.000000,,2013-09-09 08:21:00,
2013-09-09 01:52:00,80.0,65.0,-100.00,SSE,164,4.0,7.0,61,0.00,,,0.01,0.000000,,2013-09-09 08:52:00,
2013-09-09 02:01:00,80.0,65.0,-100.00,SSE,164,4.0,7.0,61,0.00,,,0.01,0.000000,,2013-09-09 09:01:00,
2013-09-09 02:12:00,80.0,65.0,-100.00,SSE,164,4.0,7.0,61,0.00,,,0.01,0.000000,,2013-09-09 09:12:00,
2013-09-09 02:22:00,80.0,65.0,-100.00,SSE,164,4.0,7.0,61,0.00,,,0.01,0.000000,,2013-09-09 09:22:00,
2013-09-09 02:54:00,81.0,65.0,-100.00,SSE,168,1.0,6.0,59,0.00,,,0.01,0.000000,,2013-09-09 09:54:00,
2013-09-09 03:03:00,81.0,65.0,-100.00,SSE,168,1.0,6.0,59,0.00,,,0.01,0.000000,,2013-09-09 10:03:00,
2013-09-09 03:12:00,81.0,65.0,-100.00,SSE,168,1.0,6.0,59,0.00,,,0.01,0.000000,,2013-09-09 10:12:00,
2013-09-09 03:23:00,81.0,65.0,-100.00,SSE,168,1.0,6.0,59,0.00,,,0.01,0.000000,,2013-09-09 10:23:00,
2013-09-09 03:52:00,79.0,63.0,-100.00,SE,131,0.0,4.0,59,0.00,,,0.01,0.000000,,2013-09-09 10:52:00,
2013-09-09 04:02:00,79.0,63.0,-100.00,SE,131,0.0,4.0,59,0.00,,,0.01,0.000000,,2013-09-09 11:02:00,
2013-09-09 04:11:00,79.0,63.0,-100.00,SE,131,0.0,4.0,59,0.00,,,0.01,0.000000,,2013-09-09 11:11:00,
2013-09-09 04:21:00,79.0,63.0,-100.00,SE,131,0.0,4.0,59,0.00,,,0.01,0.000000,,2013-09-09 11:21:00,
2013-09-09 04:52:00,81.0,66.0,-100.00,NNW,329,2.0,5.0,60,0.00,,,0.01,0.000000,,2013-09-09 11:52:00,
2013-09-09 05:01:00,81.0,66.0,-100.00,NNW,329,2.0,5.0,60,0.00,,,0.01,0.000000,,2013-09-09 12:01:00,
2013-09-09 05:12:00,81.0,66.0,-100.00,NNW,329,2.0,5.0,60,0.00,,,0.01,0.000000,,2013-09-09 12:12:00,
2013-09-09 05:22:00,81.0,66.0,-100.00,NNW,329,2.0,5.0,60,0.00,,,0.01,0.000000,,2013-09-09 12:22:00,
2013-09-09 05:52:00,81.0,67.0,-100.00,SE,139,0.0,7.0,62,0.00,,,0.01,0.000000,,2013-09-09 12:52:00,
2013-09-09 06:01:00,81.0,67.0,-100.00,SE,139,0.0,7.0,62,0.00,,,0.01,0.000000,,2013-09-09 13:01:00,
2013-09-09 06:11:00,81.0,67.0,-100.00,SE,139,0.0,7.0,62,0.00,,,0.01,0.000000,,2013-09-09 13:11:00,
2013-09-09 06:21:00,81.0,67.0,-100.00,SE,139,0.0,7.0,62,0.00,,,0.01,0.000000,,2013-09-09 13:21:00,
2013-09-09 06:52:00,79.0,68.0,-100.00,NW,307,0.0,4.0,70,0.00,,,0.01,0.000000,,2013-09-09 13:52:00,
2013-09-09 07:02:00,79.0,68.0,-100.00,NW,307,0.0,4.0,70,0.00,,,0.01,0.000000,,2013-09-09 14:02:00,
2013-09-09 07:12:00,79.0,68.0,-100.00,NW,307,0.0,4.0,70,0.00,,,0.01,0.000000,,2013-09-09 14:12:00,
2013-09-09 07:21:00,79.0,68.0,-100.00,NW,307,0.0,4.0,70,0.00,,,0.01,0.000000,,2013-09-09 14:21:00,
2013-09-09 07:52:00,83.0,70.0,-100.00,SE,132,1.0,5.0,64,0.00,,,0.01,38.000000,,2013-09-09 14:52:00,
2013-09-09 08:02:00,83.0,70.0,-100.00,SE,132,1.0,5.0,64,0.00,,,0.01,38.000000,,2013-09-09 15:02:00,
2013-09-09 08:11:00,83.0,70.0,-100.00,SE,132,1.0,5.0,64,0.00,,,0.01,38.000000,,2013-09-09 15:11:00,
2013-09-09 08:22:00,83.0,70.0,-100.00,SE,132,1.0,5.0,64,0.00,,,0.01,38.000000,,2013-09-09 15:22:00,
2013-09-09 08:53:00,87.0,67.0,-100.00,South,172,2.0,5.0,52,0.00,,,0.01,94.000000,,2013-09-09 15:53:00,
2013-09-09 09:03:00,87.0,67.0,-100.00,South,172,2.0,5.0,52,0.00,,,0.01,94.000000,,2013-09-09 16:03:00,
2013-09-09 09:13:00,87.0,67.0,-100.00,South,172,2.0,5.0,52,0.00,,,0.01,94.000000,,2013-09-09 16:13:00,
2013-09-09 09:24:00,87.0,67.0,-100.00,South,172,2.0,5.0,52,0.00,,,0.01,94.000000,,2013-09-09 16:24:00,
2013-09-09 09:54:00,90.0,72.0,-100.00,SSW,201,5.0,9.0,55,0.00,,,0.01,160.000000,,2013-09-09 16:54:00,
2013-09-09 10:03:00,90.0,72.0,-100.00,SSW,201,5.0,9.0,55,0.00,,,0.01,160.000000,,2013-09-09 17:03:00,
2013-09-09 10:12:00,90.0,72.0,-100.00,SSW,201,5.0,9.0,55,0.00,,,0.01,160.000000,,2013-09-09 17:12:00,
2013-09-09 10:23:00,90.0,72.0,-100.00,SSW,201,5.0,9.0,55,0.00,,,0.01,160.000000,,2013-09-09 17:23:00,
2013-09-09 10:53:00,92.0,69.0,-100.00,SW,218,5.0,13.0,47,0.00,,,0.01,311.000000,,2013-09-09 17:53:00,
2013-09-09 11:02:00,92.0,69.0,-100.00,SW,218,5.0,13.0,47,0.00,,,0.01,311.000000,,2013-09-09 18:02:00,
2013-09-09 11:13:00,92.0,69.0,-100.00,SW,218,5.0,13.0,47,0.00,,,0.01,311.000000,,2013-09-09 18:13:00,
2013-09-09 11:21:00,92.0,69.0,-100.00,SW,218,5.0,13.0,47,0.00,,,0.01,311.000000,,2013-09-09 18:21:00,
2013-09-09 11:52:00,97.0,69.0,-100.00,SSE,159,5.0,10.0,40,0.00,,,0.01,884.000000,,2013-09-09 18:52:00,
2013-09-09 12:01:00,97.0,69.0,-100.00,SSE,159,5.0,10.0,40,0.00,,,0.01,884.000000,,2013-09-09 19:01:00,
2013-09-09 12:11:00,97.0,69.0,-100.00,SSE,159,5.0,10.0,40,0.00,,,0.01,884.000000,,2013-09-09 19:11:00,
2013-09-09 12:22:00,97.0,69.0,-100.00,SSE,159,5.0,10.0,40,0.00,,,0.01,884.000000,,2013-09-09 19:22:00,
2013-09-09 12:52:00,97.0,70.0,-100.00,SW,214,7.0,18.0,42,0.00,,,0.01,840.000000,,2013-09-09 19:52:00,
2013-09-09 13:02:00,97.0,70.0,-100.00,SW,214,7.0,18.0,42,0.00,,,0.01,840.000000,,2013-09-09 20:02:00,
2013-09-09 13:12:00,97.0,70.0,-100.00,SW,214,7.0,18.0,42,0.00,,,0.01,840.000000,,2013-09-09 20:12:00,
2013-09-09 13:21:00,97.0,70.0,-100.00,SW,214,7.0,18.0,42,0.00,,,0.01,840.000000,,2013-09-09 20:21:00,
2013-09-09 13:53:00,97.0,69.0,-100.00,SSW,207,8.0,18.0,40,0.00,,,0.01,848.000000,,2013-09-09 20:53:00,
2013-09-09 14:02:00,97.0,69.0,-100.00,SSW,207,8.0,18.0,40,0.00,,,0.01,848.000000,,2013-09-09 21:02:00,
2013-09-09 14:12:00,97.0,69.0,-100.00,SSW,207,8.0,18.0,40,0.00,,,0.01,848.000000,,2013-09-09 21:12:00,
2013-09-09 14:22:00,97.0,69.0,-100.00,SSW,207,8.0,18.0,40,0.00,,,0.01,848.000000,,2013-09-09 21:22:00,
2013-09-09 14:54:00,99.0,67.0,-100.00,SSW,213,10.0,25.0,36,0.00,,,0.01,966.000000,,2013-09-09 21:54:00,
2013-09-09 15:05:00,99.0,67.0,-100.00,SSW,213,10.0,25.0,36,0.00,,,0.01,966.000000,,2013-09-09 22:05:00,
2013-09-09 15:13:00,99.0,67.0,-100.00,SSW,213,10.0,25.0,36,0.00,,,0.01,966.000000,,2013-09-09 22:13:00,
2013-09-09 15:24:00,99.0,67.0,-100.00,SSW,213,10.0,25.0,36,0.00,,,0.01,966.000000,,2013-09-09 22:24:00,
2013-09-09 15:54:00,99.0,68.0,-100.00,SSW,211,13.0,23.0,37,0.00,,,0.01,864.000000,,2013-09-09 22:54:00,
2013-09-09 16:03:00,99.0,68.0,-100.00,SSW,211,13.0,23.0,37,0.00,,,0.01,864.000000,,2013-09-09 23:03:00,
2013-09-09 16:12:00,99.0,68.0,-100.00,SSW,211,13.0,23.0,37,0.00,,,0.01,864.000000,,2013-09-09 23:12:00,
2013-09-09 16:22:00,99.0,68.0,-100.00,SSW,211,13.0,23.0,37,0.00,,,0.01,864.000000,,2013-09-09 23:22:00,
2013-09-09 16:52:00,97.0,61.0,-100.00,South,187,8.0,25.0,31,0.00,,,0.01,474.000000,,2013-09-09 23:52:00,
2013-09-09 17:02:00,97.0,61.0,-100.00,South,187,8.0,25.0,31,0.00,,,0.01,474.000000,,2013-09-10 00:02:00,
2013-09-09 17:12:00,97.0,61.0,-100.00,South,187,8.0,25.0,31,0.00,,,0.01,474.000000,,2013-09-10 00:12:00,
2013-09-09 17:21:00,97.0,61.0,-100.00,South,187,8.0,25.0,31,0.00,,,0.01,474.000000,,2013-09-10 00:21:00,
2013-09-09 18:21:00,79.0,66.0,-100.00,ENE,59,15.0,29.0,65,-99.99,,,0.07,126.000000,,2013-09-10 01:21:00,
2013-09-09 18:52:00,78.0,68.0,-100.00,East,79,4.0,26.0,72,0.22,,,0.29,186.000000,,2013-09-10 01:52:00,
2013-09-09 19:02:00,78.0,68.0,-100.00,East,79,4.0,26.0,72,0.22,,,0.29,186.000000,,2013-09-10 02:02:00,
2013-09-09 19:12:00,78.0,68.0,-100.00,East,79,4.0,26.0,72,0.22,,,0.29,186.000000,,2013-09-10 02:12:00,
2013-09-09 19:22:00,78.0,68.0,-100.00,East,79,4.0,26.0,72,0.22,,,0.29,186.000000,,2013-09-10 02:22:00,
2013-09-09 19:52:00,75.0,71.0,-100.00,NE,41,2.0,21.0,87,0.16,,,0.45,7.000000,,2013-09-10 02:52:00,
2013-09-09 20:02:00,75.0,71.0,-100.00,NE,41,2.0,21.0,87,0.16,,,0.45,7.000000,,2013-09-10 03:02:00,
2013-09-09 20:12:00,75.0,71.0,-100.00,NE,41,2.0,21.0,87,0.16,,,0.45,7.000000,,2013-09-10 03:12:00,
2013-09-09 20:22:00,75.0,71.0,-100.00,NE,41,2.0,21.0,87,0.16,,,0.45,7.000000,,2013-09-10 03:22:00,
2013-09-09 20:54:00,74.0,70.0,-100.00,ESE,116,12.0,27.0,88,0.14,,,0.59,0.000000,,2013-09-10 03:54:00,
2013-09-09 21:04:00,74.0,70.0,-100.00,ESE,116,12.0,27.0,88,0.14,,,0.59,0.000000,,2013-09-10 04:04:00,
2013-09-09 21:13:00,74.0,70.0,-100.00,ESE,116,12.0,27.0,88,0.14,,,0.59,0.000000,,2013-09-10 04:13:00,
2013-09-09 21:24:00,74.0,70.0,-100.00,ESE,116,12.0,27.0,88,0.14,,,0.59,0.000000,,2013-09-10 04:24:00,
2013-09-09 21:53:00,74.0,70.0,-100.00,SSW,202,6.0,20.0,87,0.04,,,0.63,0.000000,,2013-09-10 04:53:00,
2013-09-09 22:03:00,74.0,70.0,-100.00,SSW,202,6.0,20.0,87,0.04,,,0.63,0.000000,,2013-09-10 05:03:00,
2013-09-09 22:13:00,74.0,70.0,-100.00,SSW,202,6.0,20.0,87,0.04,,,0.63,0.000000,,2013-09-10 05:13:00,
2013-09-09 22:23:00,74.0,70.0,-100.00,SSW,202,6.0,20.0,87,0.04,,,0.63,0.000000,,2013-09-10 05:23:00,
2013-09-09 22:53:00,72.0,68.0,-100.00,SE,143,1.0,11.0,88,0.04,,,-99.99,0.000000,,2013-09-10 05:53:00,
2013-09-09 23:03:00,72.0,68.0,-100.00,SE,143,1.0,11.0,88,0.04,,,-99.99,0.000000,,2013-09-10 06:03:00,
2013-09-09 23:12:00,72.0,68.0,-100.00,SE,143,1.0,11.0,88,0.04,,,-99.99,0.000000,,2013-09-10 06:12:00,
2013-09-09 23:22:00,72.0,68.0,-100.00,SE,143,1.0,11.0,88,0.04,,,-99.99,0.000000,,2013-09-10 06:22:00,
2013-09-09 23:52:00,74.0,71.0,-100.00,NW,317,1.0,8.0,89,0.01,,,0.68,0.000000,,2013-09-10 06:52:00,